Terminal Aerodrome Forecast
Issued by NWS Charleston, WV

Current Version | Previous Version | Text Only | Print | Product List | Glossary Off
Versions: 1 2 3 4 5 6 7 8 9 10 11 12 13 14 15 16 17 18 19 20 21 22 23 24 25 26 27

000
FTUS41 KRLX 201500 AAA
TAFHTS
TAF AMD
KHTS 201501Z 2015/2112 21005KT P6SM SCT035
     FM201800 22008KT P6SM BKN040
     FM202100 24008KT P6SM BKN040
     FM210000 25006KT P6SM SCT050
     FM210200 26005KT 6SM BR BKN100
     FM210600 00000KT 4SM BR BKN045=

USA.gov is the U.S. government's official web portal to all federal, state and local government web resources and services.